Aérodrome :
LOGIN :

S'inscrire | Disclaimer

   EN    FR    IT 

 










Légende :    VFR   VFR Marginal   IFR   IFR Intensif   IFR Très Intensif
Visi : 
Plafond : 
>= 8 km
>= 3000ft
5 à 8 km
1000 à 3000 ft
1500m à 5 km
500 à 1000 ft
800 à 1500m
200 à 500 ft
< 800m
< 200 ft
Symboles :   Orages  Brouillard  Fortes neiges  Fortes précipitations  Vent > 20 kt
SIGMETs :   Divers  Orages  Givrage  Turbulence  Onde Orograph.  Cendres Volcan.






- Altitude de l'aérodrome : 172 ft
- Code IATA : ODS


UKOO - Odesa

DERNIER METAR :
  • 201135Z 09004MPS 4800 BR OVC006 08/07 Q1026 R34/090060 NOSIG

METARs EXPIRÉS :
  • 201130Z 09005MPS 5000 BR OVC006 08/07 Q1026 R34/090060 NOSIG
  • 201100Z 09005MPS 050V110 5000 BR OVC007 08/07 Q1026 R34/090060 NOSIG
  • 201030Z 09004MPS 040V120 6000 BKN008 OVC011 09/07 Q1026 R34/090060 NOSIG
  • 201000Z 09004MPS 8000 BKN008 OVC010 09/07 Q1027 R34/090060 NOSIG
  • 200930Z 09004MPS 9000 BKN009 OVC010 09/07 Q1027 R34/090060 NOSIG
  • 200900Z 08004MPS 7000 BKN009 OVC010 09/07 Q1027 R34/090060 NOSIG

TAF TAF UKOO
Valide du 20 à 12h jusqu'au 21 à 12h UTC


201105Z 2012/2112 08008G14MPS 2100 BR SCT003 BKN007 SCT015CB TX09/2012Z TN03/2103Z
TEMPO 2012/2018 09003MPS
PROB40
TEMPO 2012/2018 0300 FG VV002
TEMPO 2100/2112 08011G16MPS



MET'MAP, la Météo Aéronautique d'un coup d'oeil ! - Copyright ORBIFLY Décembre 2007 - Disclaimer

ORBIFLY MET'MAP TEAM :

Programmation & Développement : Alexandra Zaïnal
Conception & Développement : Baudouin d'Aumeries
Co-Programmation & Développement : Marc-Olivier Méhu
Soutien technique & logistique : Manuel Goepfert

Contact : metmap@orbifly.com




SOURCES & CREDITS :

   NOAA